sensor_id;sensor_type;location;lat;lon;timestamp;pressure;altitude;pressure_sealevel;temperature;humidity
12987;BME280;58897;51.960;5.582;2023-10-09T00:02:09;101804.94;;;14.26;100.00
12987;BME280;58897;51.960;5.582;2023-10-09T00:04:38;101808.56;;;14.34;100.00
12987;BME280;58897;51.960;5.582;2023-10-09T00:07:08;101810.09;;;14.37;100.00
12987;BME280;58897;51.960;5.582;2023-10-09T00:09:36;101811.63;;;14.39;100.00
12987;BME280;58897;51.960;5.582;2023-10-09T00:12:17;101814.56;;;14.46;100.00
12987;BME280;58897;51.960;5.582;2023-10-09T00:14:49;101816.94;;;14.49;100.00
12987;BME280;58897;51.960;5.582;2023-10-09T00:17:17;101810.16;;;14.53;100.00
12987;BME280;58897;51.960;5.582;2023-10-09T00:19:48;101806.41;;;14.46;100.00
12987;BME280;58897;51.960;5.582;2023-10-09T00:22:18;101809.78;;;14.40;100.00
12987;BME280;58897;51.960;5.582;2023-10-09T00:24:52;101823.06;;;14.51;100.00
12987;BME280;58897;51.960;5.582;2023-10-09T00:27:42;101824.78;;;14.52;100.00
12987;BME280;58897;51.960;5.582;2023-10-09T00:30:10;101819.84;;;14.55;100.00
12987;BME280;58897;51.960;5.582;2023-10-09T00:33:03;101802.69;;;14.55;100.00
12987;BME280;58897;51.960;5.582;2023-10-09T00:35:37;101795.88;;;14.51;100.00
12987;BME280;58897;51.960;5.582;2023-10-09T00:38:13;101806.06;;;14.49;100.00
12987;BME280;58897;51.960;5.582;2023-10-09T00:40:51;101796.38;;;14.46;100.00
12987;BME280;58897;51.960;5.582;2023-10-09T00:43:39;101799.59;;;14.50;100.00
12987;BME280;58897;51.960;5.582;2023-10-09T00:46:10;101799.13;;;14.54;100.00
12987;BME280;58897;51.960;5.582;2023-10-09T00:48:56;101802.31;;;14.50;100.00
12987;BME280;58897;51.960;5.582;2023-10-09T00:51:24;101798.41;;;14.52;100.00
12987;BME280;58897;51.960;5.582;2023-10-09T00:53:54;101806.94;;;14.57;100.00
12987;BME280;58897;51.960;5.582;2023-10-09T00:56:22;101809.31;;;14.60;100.00
12987;BME280;58897;51.960;5.582;2023-10-09T00:58:59;101810.03;;;14.62;100.00
12987;BME280;58897;51.960;5.582;2023-10-09T01:01:47;101807.31;;;14.62;100.00
12987;BME280;58897;51.960;5.582;2023-10-09T01:04:24;101802.19;;;14.59;100.00
12987;BME280;58897;51.960;5.582;2023-10-09T01:06:55;101793.34;;;14.65;100.00
12987;BME280;58897;51.960;5.582;2023-10-09T01:09:42;101790.97;;;14.70;100.00
12987;BME280;58897;51.960;5.582;2023-10-09T01:12:10;101787.59;;;14.68;100.00
12987;BME280;58897;51.960;5.582;2023-10-09T01:14:44;101783.19;;;14.67;100.00
12987;BME280;58897;51.960;5.582;2023-10-09T01:17:11;101784.22;;;14.74;100.00
12987;BME280;58897;51.960;5.582;2023-10-09T01:19:38;101779.28;;;14.78;100.00
12987;BME280;58897;51.960;5.582;2023-10-09T01:22:04;101778.09;;;14.72;100.00
12987;BME280;58897;51.960;5.582;2023-10-09T01:24:40;101774.34;;;14.73;100.00
12987;BME280;58897;51.960;5.582;2023-10-09T01:27:07;101765.34;;;14.73;100.00
12987;BME280;58897;51.960;5.582;2023-10-09T01:29:43;101771.63;;;14.73;100.00
12987;BME280;58897;51.960;5.582;2023-10-09T01:32:10;101767.22;;;14.72;100.00
12987;BME280;58897;51.960;5.582;2023-10-09T01:34:43;101770.44;;;14.76;100.00
12987;BME280;58897;51.960;5.582;2023-10-09T01:37:16;101774.00;;;14.76;100.00
12987;BME280;58897;51.960;5.582;2023-10-09T01:39:51;101767.56;;;14.77;100.00
12987;BME280;58897;51.960;5.582;2023-10-09T01:42:19;101761.25;;;14.77;100.00
12987;BME280;58897;51.960;5.582;2023-10-09T01:45:01;101765.16;;;14.74;100.00
12987;BME280;58897;51.960;5.582;2023-10-09T01:47:38;101763.63;;;14.72;100.00
12987;BME280;58897;51.960;5.582;2023-10-09T01:50:05;101758.03;;;14.73;100.00
12987;BME280;58897;51.960;5.582;2023-10-09T01:52:36;101764.50;;;14.72;100.00
12987;BME280;58897;51.960;5.582;2023-10-09T01:55:04;101757.88;;;14.83;100.00
12987;BME280;58897;51.960;5.582;2023-10-09T01:57:53;101750.38;;;14.77;100.00
12987;BME280;58897;51.960;5.582;2023-10-09T02:00:23;101742.56;;;14.82;100.00
12987;BME280;58897;51.960;5.582;2023-10-09T02:02:55;101753.63;;;14.80;100.00
12987;BME280;58897;51.960;5.582;2023-10-09T02:05:21;101748.66;;;14.76;100.00
12987;BME280;58897;51.960;5.582;2023-10-09T02:07:48;101745.09;;;14.83;100.00
12987;BME280;58897;51.960;5.582;2023-10-09T02:10:18;101747.81;;;14.83;100.00
12987;BME280;58897;51.960;5.582;2023-10-09T02:13:06;101748.69;;;14.84;100.00
12987;BME280;58897;51.960;5.582;2023-10-09T02:15:37;101734.06;;;14.85;100.00
12987;BME280;58897;51.960;5.582;2023-10-09T02:18:19;101730.16;;;14.88;100.00
12987;BME280;58897;51.960;5.582;2023-10-09T02:20:52;101729.97;;;14.89;100.00
12987;BME280;58897;51.960;5.582;2023-10-09T02:23:33;101734.41;;;14.82;100.00
12987;BME280;58897;51.960;5.582;2023-10-09T02:26:08;101726.25;;;14.82;100.00
12987;BME280;58897;51.960;5.582;2023-10-09T02:28:35;101722.00;;;14.79;100.00
12987;BME280;58897;51.960;5.582;2023-10-09T02:31:11;101723.00;;;14.78;100.00
12987;BME280;58897;51.960;5.582;2023-10-09T02:33:38;101723.84;;;14.79;100.00
12987;BME280;58897;51.960;5.582;2023-10-09T02:36:08;101725.91;;;14.77;100.00
12987;BME280;58897;51.960;5.582;2023-10-09T02:38:35;101719.28;;;14.79;100.00
12987;BME280;58897;51.960;5.582;2023-10-09T02:41:07;101709.41;;;14.87;100.00
12987;BME280;58897;51.960;5.582;2023-10-09T02:43:40;101697.66;;;14.86;100.00
12987;BME280;58897;51.960;5.582;2023-10-09T02:46:22;101696.84;;;14.86;100.00
12987;BME280;58897;51.960;5.582;2023-10-09T02:48:57;101702.09;;;14.87;100.00
12987;BME280;58897;51.960;5.582;2023-10-09T02:51:26;101692.59;;;14.83;100.00
12987;BME280;58897;51.960;5.582;2023-10-09T02:56:21;101697.53;;;14.88;100.00
12987;BME280;58897;51.960;5.582;2023-10-09T02:58:54;101692.59;;;14.83;100.00
12987;BME280;58897;51.960;5.582;2023-10-09T03:01:22;101696.84;;;14.86;100.00
12987;BME280;58897;51.960;5.582;2023-10-09T03:03:48;101688.34;;;14.89;100.00
12987;BME280;58897;51.960;5.582;2023-10-09T03:06:15;101675.56;;;14.81;100.00
12987;BME280;58897;51.960;5.582;2023-10-09T03:08:55;101676.75;;;14.87;100.00
12987;BME280;58897;51.960;5.582;2023-10-09T03:11:21;101686.44;;;14.81;100.00
12987;BME280;58897;51.960;5.582;2023-10-09T03:13:49;101681.53;;;14.84;100.00
12987;BME280;58897;51.960;5.582;2023-10-09T03:16:17;101685.78;;;14.87;100.00
12987;BME280;58897;51.960;5.582;2023-10-09T03:18:52;101688.16;;;14.90;100.00
12987;BME280;58897;51.960;5.582;2023-10-09T03:21:19;101680.84;;;14.91;100.00
12987;BME280;58897;51.960;5.582;2023-10-09T03:23:47;101683.72;;;14.89;100.00
12987;BME280;58897;51.960;5.582;2023-10-09T03:26:17;101676.28;;;14.91;100.00
12987;BME280;58897;51.960;5.582;2023-10-09T03:28:48;101672.84;;;14.97;100.00
12987;BME280;58897;51.960;5.582;2023-10-09T03:31:15;101676.59;;;14.96;100.00
12987;BME280;58897;51.960;5.582;2023-10-09T03:33:41;101672.19;;;14.95;100.00
12987;BME280;58897;51.960;5.582;2023-10-09T03:36:08;101666.72;;;14.95;100.00
12987;BME280;58897;51.960;5.582;2023-10-09T03:38:38;101668.94;;;14.92;100.00
12987;BME280;58897;51.960;5.582;2023-10-09T03:41:06;101670.31;;;14.96;100.00
12987;BME280;58897;51.960;5.582;2023-10-09T03:43:33;101666.22;;;15.00;100.00
12987;BME280;58897;51.960;5.582;2023-10-09T03:46:05;101667.91;;;15.01;100.00
12987;BME280;58897;51.960;5.582;2023-10-09T03:48:31;101666.53;;;14.97;100.00
12987;BME280;58897;51.960;5.582;2023-10-09T03:50:59;101680.00;;;15.06;100.00
12987;BME280;58897;51.960;5.582;2023-10-09T03:53:36;101683.19;;;15.10;100.00
12987;BME280;58897;51.960;5.582;2023-10-09T03:56:04;101683.38;;;15.08;100.00
12987;BME280;58897;51.960;5.582;2023-10-09T03:58:39;101674.03;;;15.11;100.00
12987;BME280;58897;51.960;5.582;2023-10-09T04:01:09;101693.41;;;15.16;100.00
12987;BME280;58897;51.960;5.582;2023-10-09T04:03:44;101690.16;;;15.12;100.00
12987;BME280;58897;51.960;5.582;2023-10-09T04:06:11;101689.50;;;15.10;100.00
12987;BME280;58897;51.960;5.582;2023-10-09T04:08:37;101720.28;;;15.11;100.00
12987;BME280;58897;51.960;5.582;2023-10-09T04:11:14;101729.97;;;15.13;100.00
12987;BME280;58897;51.960;5.582;2023-10-09T04:13:44;101729.63;;;15.16;100.00
12987;BME280;58897;51.960;5.582;2023-10-09T04:16:15;101726.59;;;15.19;100.00
12987;BME280;58897;51.960;5.582;2023-10-09T04:18:57;101730.81;;;15.22;100.00
12987;BME280;58897;51.960;5.582;2023-10-09T04:21:24;101724.53;;;15.21;100.00
12987;BME280;58897;51.960;5.582;2023-10-09T04:24:05;101725.88;;;15.25;100.00
12987;BME280;58897;51.960;5.582;2023-10-09T04:26:44;101720.09;;;15.20;100.00
12987;BME280;58897;51.960;5.582;2023-10-09T04:29:15;101725.53;;;15.20;100.00
12987;BME280;58897;51.960;5.582;2023-10-09T04:31:53;101714.66;;;15.20;100.00
12987;BME280;58897;51.960;5.582;2023-10-09T04:34:24;101731.69;;;15.22;100.00
12987;BME280;58897;51.960;5.582;2023-10-09T04:36:57;101719.28;;;15.20;100.00
12987;BME280;58897;51.960;5.582;2023-10-09T04:39:27;101715.34;;;15.14;100.00
12987;BME280;58897;51.960;5.582;2023-10-09T04:41:57;101718.75;;;15.16;100.00
12987;BME280;58897;51.960;5.582;2023-10-09T04:44:43;101711.09;;;15.20;100.00
12987;BME280;58897;51.960;5.582;2023-10-09T04:47:30;101721.81;;;15.21;100.00
12987;BME280;58897;51.960;5.582;2023-10-09T04:50:08;101710.41;;;15.26;100.00
12987;BME280;58897;51.960;5.582;2023-10-09T04:52:40;101709.06;;;15.22;100.00
12987;BME280;58897;51.960;5.582;2023-10-09T04:55:08;101710.56;;;15.24;100.00
12987;BME280;58897;51.960;5.582;2023-10-09T04:57:39;101710.56;;;15.24;100.00
12987;BME280;58897;51.960;5.582;2023-10-09T05:00:16;101715.69;;;15.27;100.00
12987;BME280;58897;51.960;5.582;2023-10-09T05:02:49;101698.81;;;15.32;100.00
12987;BME280;58897;51.960;5.582;2023-10-09T05:05:24;101716.00;;;15.32;100.00
12987;BME280;58897;51.960;5.582;2023-10-09T05:11:12;101710.06;;;15.29;100.00
12987;BME280;58897;51.960;5.582;2023-10-09T05:13:56;101715.50;;;15.29;100.00
12987;BME280;58897;51.960;5.582;2023-10-09T05:16:38;101721.13;;;15.35;100.00
12987;BME280;58897;51.960;5.582;2023-10-09T05:19:23;101712.09;;;15.35;100.00
12987;BME280;58897;51.960;5.582;2023-10-09T05:22:00;101707.84;;;15.32;100.00
12987;BME280;58897;51.960;5.582;2023-10-09T05:24:34;101709.03;;;15.30;100.00
12987;BME280;58897;51.960;5.582;2023-10-09T05:27:10;101714.31;;;15.31;100.00
12987;BME280;58897;51.960;5.582;2023-10-09T05:29:51;101720.75;;;15.38;100.00
12987;BME280;58897;51.960;5.582;2023-10-09T05:32:39;101723.97;;;15.42;100.00
12987;BME280;58897;51.960;5.582;2023-10-09T05:35:14;101730.63;;;15.39;100.00
12987;BME280;58897;51.960;5.582;2023-10-09T05:37:46;101726.69;;;15.42;100.00
12987;BME280;58897;51.960;5.582;2023-10-09T05:40:13;101729.63;;;15.40;100.00
12987;BME280;58897;51.960;5.582;2023-10-09T05:42:42;101730.28;;;15.42;100.00
12987;BME280;58897;51.960;5.582;2023-10-09T05:45:16;101737.78;;;15.40;100.00
12987;BME280;58897;51.960;5.582;2023-10-09T05:47:46;101747.63;;;15.41;100.00
12987;BME280;58897;51.960;5.582;2023-10-09T05:50:26;101752.41;;;15.39;100.00
12987;BME280;58897;51.960;5.582;2023-10-09T05:52:55;101746.78;;;15.41;100.00
12987;BME280;58897;51.960;5.582;2023-10-09T05:55:23;101767.53;;;15.42;100.00
12987;BME280;58897;51.960;5.582;2023-10-09T05:58:08;101767.72;;;15.40;100.00
12987;BME280;58897;51.960;5.582;2023-10-09T06:00:35;101769.94;;;15.45;100.00
12987;BME280;58897;51.960;5.582;2023-10-09T06:03:20;101775.38;;;15.45;100.00
12987;BME280;58897;51.960;5.582;2023-10-09T06:05:56;101788.97;;;15.45;100.00
12987;BME280;58897;51.960;5.582;2023-10-09T06:08:24;101784.09;;;15.49;100.00
12987;BME280;58897;51.960;5.582;2023-10-09T06:10:53;101785.09;;;15.48;100.00
12987;BME280;58897;51.960;5.582;2023-10-09T06:13:32;101768.56;;;15.49;100.00
12987;BME280;58897;51.960;5.582;2023-10-09T06:16:12;101770.63;;;15.47;100.00
12987;BME280;58897;51.960;5.582;2023-10-09T06:18:57;101759.75;;;15.47;100.00
12987;BME280;58897;51.960;5.582;2023-10-09T06:21:54;101737.81;;;15.49;100.00
12987;BME280;58897;51.960;5.582;2023-10-09T06:24:39;101721.28;;;15.50;100.00
12987;BME280;58897;51.960;5.582;2023-10-09T06:27:10;101724.00;;;15.50;100.00
12987;BME280;58897;51.960;5.582;2023-10-09T06:29:39;101724.00;;;15.50;100.00
12987;BME280;58897;51.960;5.582;2023-10-09T06:32:15;101723.13;;;15.50;100.00
12987;BME280;58897;51.960;5.582;2023-10-09T06:34:49;101738.63;;;15.49;100.00
12987;BME280;58897;51.960;5.582;2023-10-09T06:37:19;101748.69;;;15.49;100.00
12987;BME280;58897;51.960;5.582;2023-10-09T06:39:46;101738.28;;;15.52;100.00
12987;BME280;58897;51.960;5.582;2023-10-09T06:42:25;101724.84;;;15.51;100.00
12987;BME280;58897;51.960;5.582;2023-10-09T06:45:15;101739.81;;;15.55;100.00
12987;BME280;58897;51.960;5.582;2023-10-09T06:47:49;101737.63;;;15.50;100.00
12987;BME280;58897;51.960;5.582;2023-10-09T06:50:23;101734.19;;;15.56;100.00
12987;BME280;58897;51.960;5.582;2023-10-09T06:53:09;101729.59;;;15.57;100.00
12987;BME280;58897;51.960;5.582;2023-10-09T06:55:36;101718.19;;;15.61;100.00
12987;BME280;58897;51.960;5.582;2023-10-09T06:58:23;101743.69;;;15.68;100.00
12987;BME280;58897;51.960;5.582;2023-10-09T07:00:52;101772.47;;;15.71;100.00
12987;BME280;58897;51.960;5.582;2023-10-09T07:03:26;101773.78;;;15.75;100.00
12987;BME280;58897;51.960;5.582;2023-10-09T07:06:08;101771.06;;;15.75;100.00
12987;BME280;58897;51.960;5.582;2023-10-09T07:08:55;101782.66;;;15.77;100.00
12987;BME280;58897;51.960;5.582;2023-10-09T07:11:39;101789.63;;;15.79;100.00
12987;BME280;58897;51.960;5.582;2023-10-09T07:17:02;101783.66;;;15.84;100.00
12987;BME280;58897;51.960;5.582;2023-10-09T07:19:31;101785.19;;;15.86;100.00
12987;BME280;58897;51.960;5.582;2023-10-09T07:22:01;101774.09;;;15.88;100.00
12987;BME280;58897;51.960;5.582;2023-10-09T07:24:31;101773.94;;;15.89;100.00
12987;BME280;58897;51.960;5.582;2023-10-09T07:27:10;101778.84;;;15.94;100.00
12987;BME280;58897;51.960;5.582;2023-10-09T07:29:40;101789.41;;;15.97;100.00
12987;BME280;58897;51.960;5.582;2023-10-09T07:32:19;101786.50;;;15.98;100.00
12987;BME280;58897;51.960;5.582;2023-10-09T07:34:49;101778.81;;;16.02;100.00
12987;BME280;58897;51.960;5.582;2023-10-09T07:37:28;101787.00;;;16.02;100.00
12987;BME280;58897;51.960;5.582;2023-10-09T07:40:04;101755.16;;;16.02;100.00
12987;BME280;58897;51.960;5.582;2023-10-09T07:42:34;101757.69;;;16.04;100.00
12987;BME280;58897;51.960;5.582;2023-10-09T07:45:01;101738.63;;;16.04;100.00
12987;BME280;58897;51.960;5.582;2023-10-09T07:47:48;101718.31;;;16.06;100.00
12987;BME280;58897;51.960;5.582;2023-10-09T07:50:34;101680.72;;;16.02;100.00
12987;BME280;58897;51.960;5.582;2023-10-09T07:53:21;101687.84;;;16.11;100.00
12987;BME280;58897;51.960;5.582;2023-10-09T07:55:55;101675.34;;;16.17;100.00
12987;BME280;58897;51.960;5.582;2023-10-09T07:58:25;101679.53;;;16.27;100.00
12987;BME280;58897;51.960;5.582;2023-10-09T08:00:55;101674.03;;;16.35;100.00
12987;BME280;58897;51.960;5.582;2023-10-09T08:03:35;101699.19;;;16.45;100.00
12987;BME280;58897;51.960;5.582;2023-10-09T08:06:02;101737.78;;;16.65;100.00
12987;BME280;58897;51.960;5.582;2023-10-09T08:08:47;101756.03;;;16.87;100.00
12987;BME280;58897;51.960;5.582;2023-10-09T08:11:32;101769.69;;;17.10;100.00
12987;BME280;58897;51.960;5.582;2023-10-09T08:14:21;101760.28;;;17.12;100.00
12987;BME280;58897;51.960;5.582;2023-10-09T08:16:51;101738.59;;;17.11;100.00
12987;BME280;58897;51.960;5.582;2023-10-09T08:19:38;101736.06;;;17.09;100.00
12987;BME280;58897;51.960;5.582;2023-10-09T08:22:29;101735.59;;;17.06;100.00
12987;BME280;58897;51.960;5.582;2023-10-09T08:24:57;101740.59;;;17.02;100.00
12987;BME280;58897;51.960;5.582;2023-10-09T08:30:04;101761.56;;;17.02;100.00
12987;BME280;58897;51.960;5.582;2023-10-09T08:32:47;101763.19;;;17.11;100.00
12987;BME280;58897;51.960;5.582;2023-10-09T08:35:34;101740.34;;;17.26;100.00
12987;BME280;58897;51.960;5.582;2023-10-09T08:38:03;101753.47;;;17.31;100.00
12987;BME280;58897;51.960;5.582;2023-10-09T08:40:36;101747.13;;;17.53;100.00
12987;BME280;58897;51.960;5.582;2023-10-09T08:43:13;101744.97;;;17.78;100.00
12987;BME280;58897;51.960;5.582;2023-10-09T08:45:45;101742.69;;;17.81;100.00
12987;BME280;58897;51.960;5.582;2023-10-09T08:48:13;101749.75;;;17.76;100.00
12987;BME280;58897;51.960;5.582;2023-10-09T08:50:45;101756.66;;;17.72;100.00
12987;BME280;58897;51.960;5.582;2023-10-09T08:53:12;101761.53;;;17.76;100.00
12987;BME280;58897;51.960;5.582;2023-10-09T08:55:40;101754.19;;;17.77;100.00
12987;BME280;58897;51.960;5.582;2023-10-09T08:58:08;101759.09;;;17.96;100.00
12987;BME280;58897;51.960;5.582;2023-10-09T09:00:52;101752.00;;;18.02;100.00
12987;BME280;58897;51.960;5.582;2023-10-09T09:03:19;101754.69;;;18.45;100.00
12987;BME280;58897;51.960;5.582;2023-10-09T09:05:59;101758.97;;;19.11;100.00
12987;BME280;58897;51.960;5.582;2023-10-09T09:08:32;101749.31;;;19.37;100.00
12987;BME280;58897;51.960;5.582;2023-10-09T09:11:09;101739.66;;;19.41;100.00
12987;BME280;58897;51.960;5.582;2023-10-09T09:16:20;101757.31;;;18.89;100.00
12987;BME280;58897;51.960;5.582;2023-10-09T09:18:51;101755.41;;;18.90;100.00
12987;BME280;58897;51.960;5.582;2023-10-09T09:21:19;101761.03;;;19.03;100.00
12987;BME280;58897;51.960;5.582;2023-10-09T09:24:02;101755.97;;;19.06;100.00
12987;BME280;58897;51.960;5.582;2023-10-09T09:26:37;101749.38;;;18.80;100.00
12987;BME280;58897;51.960;5.582;2023-10-09T09:29:15;101748.81;;;18.84;100.00
12987;BME280;58897;51.960;5.582;2023-10-09T09:31:52;101763.53;;;18.83;100.00
12987;BME280;58897;51.960;5.582;2023-10-09T09:34:20;101764.78;;;18.81;100.00
12987;BME280;58897;51.960;5.582;2023-10-09T09:36:54;101776.19;;;18.84;100.00
12987;BME280;58897;51.960;5.582;2023-10-09T09:39:22;101789.88;;;18.84;100.00
12987;BME280;58897;51.960;5.582;2023-10-09T09:42:04;101780.69;;;18.92;100.00
12987;BME280;58897;51.960;5.582;2023-10-09T09:44:34;101779.47;;;19.16;100.00
12987;BME280;58897;51.960;5.582;2023-10-09T09:47:13;101783.22;;;19.15;100.00
12987;BME280;58897;51.960;5.582;2023-10-09T09:49:41;101767.81;;;19.35;100.00
12987;BME280;58897;51.960;5.582;2023-10-09T09:52:09;101788.38;;;19.24;100.00
12987;BME280;58897;51.960;5.582;2023-10-09T09:54:38;101778.13;;;18.90;100.00
12987;BME280;58897;51.960;5.582;2023-10-09T09:57:07;101773.78;;;18.96;100.00
12987;BME280;58897;51.960;5.582;2023-10-09T09:59:40;101760.75;;;18.98;100.00
12987;BME280;58897;51.960;5.582;2023-10-09T10:02:13;101753.09;;;19.15;100.00
12987;BME280;58897;51.960;5.582;2023-10-09T10:04:52;101758.91;;;19.26;100.00
12987;BME280;58897;51.960;5.582;2023-10-09T10:07:21;101765.63;;;19.24;100.00
12987;BME280;58897;51.960;5.582;2023-10-09T10:09:49;101756.81;;;19.28;100.00
12987;BME280;58897;51.960;5.582;2023-10-09T10:12:57;101755.44;;;19.39;100.00
12987;BME280;58897;51.960;5.582;2023-10-09T10:18:24;101753.34;;;19.41;100.00
12987;BME280;58897;51.960;5.582;2023-10-09T10:21:10;101757.47;;;19.86;100.00
12987;BME280;58897;51.960;5.582;2023-10-09T10:23:44;101748.00;;;19.95;100.00
12987;BME280;58897;51.960;5.582;2023-10-09T10:26:18;101743.31;;;20.23;100.00
12987;BME280;58897;51.960;5.582;2023-10-09T10:31:55;101732.31;;;20.16;100.00
12987;BME280;58897;51.960;5.582;2023-10-09T10:34:24;101737.94;;;20.43;100.00
12987;BME280;58897;51.960;5.582;2023-10-09T10:36:53;101729.44;;;20.31;100.00
12987;BME280;58897;51.960;5.582;2023-10-09T10:39:26;101740.13;;;20.73;100.00
12987;BME280;58897;51.960;5.582;2023-10-09T10:42:14;101736.16;;;20.96;100.00
12987;BME280;58897;51.960;5.582;2023-10-09T10:45:02;101739.34;;;21.38;100.00
12987;BME280;58897;51.960;5.582;2023-10-09T10:47:49;101733.84;;;21.58;100.00
12987;BME280;58897;51.960;5.582;2023-10-09T10:50:17;101728.88;;;22.06;100.00
12987;BME280;58897;51.960;5.582;2023-10-09T10:53:12;101727.44;;;23.10;100.00
12987;BME280;58897;51.960;5.582;2023-10-09T10:55:58;101718.91;;;22.11;100.00
12987;BME280;58897;51.960;5.582;2023-10-09T10:58:54;101722.63;;;21.60;100.00
12987;BME280;58897;51.960;5.582;2023-10-09T11:01:31;101722.03;;;21.18;100.00
12987;BME280;58897;51.960;5.582;2023-10-09T11:04:20;101725.81;;;21.30;100.00
12987;BME280;58897;51.960;5.582;2023-10-09T11:06:57;101728.34;;;21.12;100.00
12987;BME280;58897;51.960;5.582;2023-10-09T11:09:49;101733.63;;;21.07;100.00
12987;BME280;58897;51.960;5.582;2023-10-09T11:15:33;101741.88;;;21.20;100.00
12987;BME280;58897;51.960;5.582;2023-10-09T11:18:14;101731.94;;;21.26;100.00
12987;BME280;58897;51.960;5.582;2023-10-09T11:21:01;101724.97;;;21.49;100.00
12987;BME280;58897;51.960;5.582;2023-10-09T11:23:31;101727.50;;;21.38;100.00
12987;BME280;58897;51.960;5.582;2023-10-09T11:26:05;101724.75;;;21.38;100.00
12987;BME280;58897;51.960;5.582;2023-10-09T11:29:06;101718.59;;;20.83;100.00
12987;BME280;58897;51.960;5.582;2023-10-09T11:31:41;101729.00;;;21.14;100.00
12987;BME280;58897;51.960;5.582;2023-10-09T11:34:18;101723.72;;;21.06;100.00
12987;BME280;58897;51.960;5.582;2023-10-09T11:39:38;101733.56;;;20.68;100.00
12987;BME280;58897;51.960;5.582;2023-10-09T11:42:21;101731.91;;;20.80;100.00
12987;BME280;58897;51.960;5.582;2023-10-09T11:45:19;101729.78;;;20.88;100.00
12987;BME280;58897;51.960;5.582;2023-10-09T11:47:52;101724.78;;;21.12;100.00
12987;BME280;58897;51.960;5.582;2023-10-09T11:53:10;101719.69;;;21.28;100.00
12987;BME280;58897;51.960;5.582;2023-10-09T11:56:00;101722.00;;;20.99;100.00
12987;BME280;58897;51.960;5.582;2023-10-09T11:58:26;101718.00;;;21.01;100.00
12987;BME280;58897;51.960;5.582;2023-10-09T12:00:54;101724.53;;;21.00;100.00
12987;BME280;58897;51.960;5.582;2023-10-09T12:03:26;101726.25;;;21.08;100.00
12987;BME280;58897;51.960;5.582;2023-10-09T12:05:57;101714.59;;;21.06;100.00
12987;BME280;58897;51.960;5.582;2023-10-09T12:08:24;101718.38;;;20.72;100.00
12987;BME280;58897;51.960;5.582;2023-10-09T12:10:54;101715.63;;;20.72;100.00
12987;BME280;58897;51.960;5.582;2023-10-09T12:13:24;101715.41;;;20.73;100.00
12987;BME280;58897;51.960;5.582;2023-10-09T12:15:52;101711.59;;;20.68;100.00
12987;BME280;58897;51.960;5.582;2023-10-09T12:18:20;101712.03;;;20.71;100.00
12987;BME280;58897;51.960;5.582;2023-10-09T12:20:48;101717.72;;;20.63;100.00
12987;BME280;58897;51.960;5.582;2023-10-09T12:23:18;101716.84;;;20.63;100.00
12987;BME280;58897;51.960;5.582;2023-10-09T12:25:48;101713.31;;;20.82;100.00
12987;BME280;58897;51.960;5.582;2023-10-09T12:28:16;101707.81;;;21.02;100.00
12987;BME280;58897;51.960;5.582;2023-10-09T12:30:47;101702.34;;;21.28;100.00
12987;BME280;58897;51.960;5.582;2023-10-09T12:33:18;101700.88;;;21.12;100.00
12987;BME280;58897;51.960;5.582;2023-10-09T12:35:46;101704.47;;;20.93;100.00
12987;BME280;58897;51.960;5.582;2023-10-09T12:38:14;101699.56;;;20.88;100.00
12987;BME280;58897;51.960;5.582;2023-10-09T12:40:45;101699.16;;;20.72;100.00
12987;BME280;58897;51.960;5.582;2023-10-09T12:43:19;101701.06;;;20.65;100.00
12987;BME280;58897;51.960;5.582;2023-10-09T12:45:46;101703.97;;;20.63;100.00
12987;BME280;58897;51.960;5.582;2023-10-09T12:48:13;101700.19;;;20.64;100.00
12987;BME280;58897;51.960;5.582;2023-10-09T12:50:41;101693.41;;;20.54;100.00
12987;BME280;58897;51.960;5.582;2023-10-09T12:53:13;101700.81;;;20.53;100.00
12987;BME280;58897;51.960;5.582;2023-10-09T12:55:44;101698.91;;;20.54;100.00
12987;BME280;58897;51.960;5.582;2023-10-09T12:58:11;101708.00;;;20.61;100.00
12987;BME280;58897;51.960;5.582;2023-10-09T13:00:43;101703.16;;;20.69;100.00
12987;BME280;58897;51.960;5.582;2023-10-09T13:03:16;101715.34;;;20.47;100.00
12987;BME280;58897;51.960;5.582;2023-10-09T13:05:53;101717.41;;;20.32;100.00
12987;BME280;58897;51.960;5.582;2023-10-09T13:08:23;101715.31;;;20.34;100.00
12987;BME280;58897;51.960;5.582;2023-10-09T13:10:51;101714.88;;;20.30;100.00
12987;BME280;58897;51.960;5.582;2023-10-09T13:13:26;101721.47;;;20.36;100.00
12987;BME280;58897;51.960;5.582;2023-10-09T13:16:02;101726.75;;;20.57;100.00
12987;BME280;58897;51.960;5.582;2023-10-09T13:18:32;101714.34;;;20.61;100.00
12987;BME280;58897;51.960;5.582;2023-10-09T13:20:59;101724.91;;;20.64;100.00
12987;BME280;58897;51.960;5.582;2023-10-09T13:23:31;101728.72;;;20.70;100.00
12987;BME280;58897;51.960;5.582;2023-10-09T13:26:07;101726.16;;;20.68;100.00
12987;BME280;58897;51.960;5.582;2023-10-09T13:29:06;101731.63;;;20.55;100.00
12987;BME280;58897;51.960;5.582;2023-10-09T13:31:36;101720.22;;;20.52;100.00
12987;BME280;58897;51.960;5.582;2023-10-09T13:34:04;101719.19;;;20.59;100.00
12987;BME280;58897;51.960;5.582;2023-10-09T13:36:36;101719.78;;;20.48;100.00
12987;BME280;58897;51.960;5.582;2023-10-09T13:39:07;101723.97;;;20.44;100.00
12987;BME280;58897;51.960;5.582;2023-10-09T13:41:55;101725.72;;;20.52;100.00
12987;BME280;58897;51.960;5.582;2023-10-09T13:44:28;101724.91;;;20.64;100.00
12987;BME280;58897;51.960;5.582;2023-10-09T13:46:59;101721.75;;;20.67;100.00